Time;durP1;ratioP1;P1;durP2;ratioP2;P2;SDS_P1;SDS_P2;PMS_P1;PMS_P2;Temp;Humidity;BMP_temperature;BMP_pressure;BME280_temperature;BME280_humidity;BME280_pressure;Samples;Min_cycle;Max_cycle;Signal;HPM_P1;HPM_P2
2021/09/30 00:01:59;;;;;;;3.67;1.80;;;;;;;15.84;54.65;99808.00;5054656;28;20403;-51
2021/09/30 00:04:27;;;;;;;5.38;1.38;;;;;;;15.83;54.73;99798.44;5054719;28;20013;-51
2021/09/30 00:06:53;;;;;;;10.27;2.67;;;;;;;15.84;54.48;99792.94;5054580;28;20029;-51
2021/09/30 00:09:19;;;;;;;4.43;1.08;;;;;;;15.90;54.56;99807.19;5053432;28;20112;-51
2021/09/30 00:11:48;;;;;;;8.75;3.45;;;;;;;16.07;54.09;99811.00;5053132;28;20044;-51
2021/09/30 00:14:27;;;;;;;3.13;1.08;;;;;;;16.09;53.84;99811.59;5054501;28;20032;-51
2021/09/30 00:17:59;;;;;;;4.55;1.08;;;;;;;16.00;53.87;99807.56;5054318;28;20372;-51
2021/09/30 00:36:11;;;;;;;11.27;2.78;;;;;;;15.70;54.66;99794.75;5054033;28;20483;-51
2021/09/30 00:49:46;;;;;;;7.88;1.30;;;;;;;16.55;52.93;99791.25;5053868;28;20108;-51
2021/09/30 00:54:49;;;;;;;4.60;1.85;;;;;;;16.30;52.96;99794.63;5053998;28;20115;-51
2021/09/30 01:21:23;;;;;;;6.63;1.50;;;;;;;15.81;54.60;99781.94;5053265;28;20530;-51
2021/09/30 03:00:00;;;;;;;8.52;2.00;;;;;;;13.85;59.77;99730.81;5051926;28;20108;-51
2021/09/30 03:02:28;;;;;;;9.70;1.85;;;;;;;13.75;59.79;99728.53;5051602;28;20021;-51
2021/09/30 03:04:56;;;;;;;29.73;26.80;;;;;;;13.77;59.94;99726.50;5051513;28;20140;-51
2021/09/30 03:07:22;;;;;;;6.18;1.77;;;;;;;13.88;59.74;99724.31;5051588;28;20494;-51
2021/09/30 03:09:50;;;;;;;5.10;1.70;;;;;;;13.95;59.42;99728.63;5050257;28;20021;-51
2021/09/30 03:12:24;;;;;;;6.28;2.05;;;;;;;14.06;59.41;99726.44;5051380;28;20119;-51
2021/09/30 03:15:13;;;;;;;13.50;1.83;;;;;;;14.24;59.07;99731.97;5051437;28;20033;-51
2021/09/30 03:17:43;;;;;;;4.25;1.60;;;;;;;14.36;58.18;99725.09;5051550;28;20510;-51
2021/09/30 03:20:43;;;;;;;10.32;1.75;;;;;;;14.36;57.59;99725.09;5051491;28;20367;-51
2021/09/30 03:23:07;;;;;;;12.05;2.88;;;;;;;14.24;57.90;99721.41;5051162;28;20131;-51
2021/09/30 03:25:33;;;;;;;7.28;1.90;;;;;;;14.13;57.85;99716.72;5051270;28;20045;-51
2021/09/30 03:28:01;;;;;;;11.23;3.45;;;;;;;14.07;58.17;99717.53;5051713;28;20430;-51
2021/09/30 03:30:28;;;;;;;9.00;1.98;;;;;;;14.07;58.12;99717.53;5050083;28;20108;-51
2021/09/30 03:32:55;;;;;;;51.63;46.33;;;;;;;14.14;58.39;99707.78;5049987;28;20120;-51
2021/09/30 03:35:24;;;;;;;9.50;2.95;;;;;;;14.25;58.08;99701.94;5051398;28;20067;-51
2021/09/30 03:37:51;;;;;;;14.15;3.08;;;;;;;14.32;57.81;99705.38;5051350;28;20024;-51
2021/09/30 03:40:16;;;;;;;7.68;1.73;;;;;;;14.35;57.65;99704.19;5049950;28;20047;-51
2021/09/30 03:42:42;;;;;;;11.07;3.45;;;;;;;14.22;57.34;99704.97;5051509;28;20029;-51
2021/09/30 03:45:09;;;;;;;6.40;1.92;;;;;;;14.04;57.46;99705.50;5051261;28;20510;-51
2021/09/30 03:47:34;;;;;;;12.02;2.53;;;;;;;13.93;57.84;99714.00;5049880;28;20108;-51
2021/09/30 03:50:00;;;;;;;12.60;10.82;;;;;;;14.03;58.15;99711.81;5051900;28;20542;-51
2021/09/30 03:52:40;;;;;;;8.45;2.38;;;;;;;14.11;57.99;99714.28;5053542;28;20435;-51
2021/09/30 03:59:04;;;;;;;13.30;2.40;;;;;;;14.18;57.08;99724.84;5054828;28;20033;-51
2021/09/30 04:00:27;;;;;;;11.95;2.90;;;;;;;14.02;57.42;99725.19;5054759;28;20068;-51
2021/09/30 04:02:53;;;;;;;11.35;5.07;;;;;;;13.94;57.60;99719.09;5054724;28;20581;-50
2021/09/30 04:05:18;;;;;;;9.43;3.25;;;;;;;13.90;58.13;99714.38;5053327;28;20067;-50
2021/09/30 04:07:44;;;;;;;10.88;2.30;;;;;;;13.95;57.93;99719.91;5053299;28;20481;-51
2021/09/30 04:10:10;;;;;;;11.18;2.20;;;;;;;13.96;57.65;99716.25;5054594;28;20368;-51
2021/09/30 04:12:36;;;;;;;11.65;3.40;;;;;;;13.96;57.39;99710.97;5053130;28;20017;-51
2021/09/30 04:15:02;;;;;;;11.32;3.53;;;;;;;13.94;57.33;99715.63;5053232;28;20482;-51
2021/09/30 04:17:27;;;;;;;11.02;2.25;;;;;;;13.85;57.72;99711.53;5053442;28;20036;-51
2021/09/30 04:19:53;;;;;;;8.20;2.60;;;;;;;13.84;57.61;99718.63;5053113;28;20052;-51
2021/09/30 04:22:19;;;;;;;15.13;3.03;;;;;;;13.78;57.71;99712.31;5054392;28;20155;-51
2021/09/30 04:24:47;;;;;;;13.75;3.20;;;;;;;13.78;57.75;99717.59;5052755;28;20056;-51
2021/09/30 04:27:13;;;;;;;5.82;1.45;;;;;;;13.65;57.77;99709.59;5054251;28;20029;-51
2021/09/30 04:29:39;;;;;;;10.82;2.58;;;;;;;13.55;58.26;99712.59;5054168;28;20047;-51
2021/09/30 04:32:05;;;;;;;5.75;1.30;;;;;;;13.61;58.06;99720.75;5052811;28;20136;-51
2021/09/30 04:34:31;;;;;;;16.73;5.18;;;;;;;13.72;58.06;99717.53;5054129;28;20036;-51
2021/09/30 04:36:56;;;;;;;319.80;263.23;;;;;;;13.71;57.94;99719.38;5054026;28;20025;-51
2021/09/30 04:39:22;;;;;;;20.98;7.68;;;;;;;13.75;57.82;99714.53;5054077;28;20510;-51
2021/09/30 04:41:48;;;;;;;10.88;2.47;;;;;;;13.78;57.90;99712.31;5053905;28;20025;-51
2021/09/30 04:44:14;;;;;;;21.48;3.63;;;;;;;13.77;58.05;99717.78;5053892;28;20060;-51
2021/09/30 04:46:41;;;;;;;27.35;13.43;;;;;;;13.83;57.81;99717.00;5053887;28;20020;-51
2021/09/30 04:49:07;;;;;;;16.00;2.40;;;;;;;13.80;57.28;99712.09;5053887;28;20090;-51
2021/09/30 04:51:33;;;;;;;13.43;2.25;;;;;;;13.65;57.62;99709.59;5052455;28;20029;-50
2021/09/30 04:54:02;;;;;;;23.30;4.38;;;;;;;13.50;58.04;99711.53;5053737;28;20510;-51
2021/09/30 04:56:29;;;;;;;9.38;2.30;;;;;;;13.38;58.14;99706.81;5053731;28;20052;-51
2021/09/30 04:58:55;;;;;;;13.48;2.80;;;;;;;13.15;58.66;99701.75;5053743;28;20082;-51
2021/09/30 05:01:21;;;;;;;10.05;1.63;;;;;;;13.04;58.77;99704.94;5052889;28;20031;-51
2021/09/30 05:03:47;;;;;;;25.17;16.45;;;;;;;12.93;59.53;99702.81;5053311;28;20108;-51
2021/09/30 05:06:13;;;;;;;15.23;2.45;;;;;;;12.98;59.38;99700.44;5053571;28;20099;-51
2021/09/30 05:08:42;;;;;;;26.10;3.53;;;;;;;12.98;59.64;99698.59;5053523;28;20063;-51
2021/09/30 05:11:08;;;;;;;16.80;4.65;;;;;;;13.06;59.26;99702.09;5053394;28;20564;-51
2021/09/30 05:13:42;;;;;;;10.70;3.97;;;;;;;13.08;59.00;99700.91;5053372;28;20025;-51
2021/09/30 05:16:13;;;;;;;8.05;1.33;;;;;;;12.95;58.93;99709.50;5053311;28;20025;-51
2021/09/30 05:18:50;;;;;;;9.75;1.80;;;;;;;12.77;59.66;99703.88;5053616;28;20036;-51
2021/09/30 05:21:16;;;;;;;6.20;2.45;;;;;;;12.64;60.22;99701.97;5053326;28;20029;-51
2021/09/30 05:23:42;;;;;;;12.57;2.20;;;;;;;12.67;60.48;99706.03;5053213;28;20056;-51
2021/09/30 05:26:08;;;;;;;16.30;2.60;;;;;;;12.80;60.65;99698.25;5052980;28;20080;-51
2021/09/30 05:28:34;;;;;;;18.50;2.67;;;;;;;12.95;60.56;99701.59;5053126;28;20509;-51
2021/09/30 05:31:00;;;;;;;21.50;2.63;;;;;;;13.10;60.09;99695.41;5053062;28;20108;-51
2021/09/30 05:33:27;;;;;;;8.93;2.03;;;;;;;13.20;59.58;99706.47;5052924;28;20490;-51
2021/09/30 05:35:53;;;;;;;8.32;2.33;;;;;;;13.29;59.22;99700.06;5035130;28;20036;-51
2021/09/30 05:38:20;;;;;;;14.82;1.88;;;;;;;13.43;59.18;99700.97;5052898;28;20021;-51
2021/09/30 05:40:48;;;;;;;11.40;2.50;;;;;;;13.54;59.14;99703.06;5051580;28;20119;-51
2021/09/30 05:43:37;;;;;;;17.92;3.20;;;;;;;13.66;58.35;99703.34;5051575;28;20021;-51
2021/09/30 05:46:04;;;;;;;18.20;3.15;;;;;;;13.64;58.29;99709.78;5052835;28;20061;-51
2021/09/30 05:48:30;;;;;;;11.35;2.20;;;;;;;13.72;58.34;99709.63;5052693;28;20490;-51
2021/09/30 05:50:56;;;;;;;90.95;67.05;;;;;;;13.84;57.99;99707.25;5052641;28;20036;-51
2021/09/30 05:53:22;;;;;;;703.85;631.85;;;;;;;13.91;58.00;99716.03;5052562;28;20025;-51
2021/09/30 05:55:49;;;;;;;62.35;47.47;;;;;;;13.97;57.46;99715.25;5052551;28;20070;-51
2021/09/30 05:58:16;;;;;;;67.88;43.97;;;;;;;14.10;57.19;99712.63;5052524;28;20021;-51
2021/09/30 06:13:59;;;;;;;11.63;2.22;;;;;;;16.80;49.88;99721.56;5052030;28;20035;-51
2021/09/30 06:16:26;;;;;;;7.00;2.05;;;;;;;17.39;48.89;99719.47;5052312;28;20055;-51
2021/09/30 06:18:53;;;;;;;8.88;3.10;;;;;;;17.92;47.63;99721.56;5052158;28;20031;-49
2021/09/30 06:21:19;;;;;;;7.03;2.05;;;;;;;18.47;46.33;99715.31;5050803;28;20025;-49
2021/09/30 06:23:45;;;;;;;8.23;1.90;;;;;;;19.01;45.06;99726.78;5050794;28;20066;-49
2021/09/30 06:26:11;;;;;;;14.57;2.80;;;;;;;19.40;44.08;99719.19;5051605;28;20044;-49
2021/09/30 06:28:37;;;;;;;9.10;2.33;;;;;;;19.72;43.14;99722.28;5050662;28;20029;-49
2021/09/30 06:31:04;;;;;;;18.50;3.85;;;;;;;19.85;42.64;99734.53;5051970;28;20032;-49
2021/09/30 06:33:30;;;;;;;10.73;2.40;;;;;;;19.71;42.33;99727.84;5050573;28;20143;-49
2021/09/30 06:35:56;;;;;;;13.80;3.00;;;;;;;18.93;43.39;99730.63;5051846;28;20024;-49
2021/09/30 06:38:22;;;;;;;16.10;6.57;;;;;;;17.87;45.13;99740.03;5051867;28;20021;-49
2021/09/30 06:40:48;;;;;;;11.82;2.83;;;;;;;16.99;47.06;99741.03;5051879;28;20059;-49
2021/09/30 06:43:14;;;;;;;19.55;2.40;;;;;;;16.72;48.47;99746.47;5051870;28;20028;-48
2021/09/30 06:45:40;;;;;;;17.63;2.75;;;;;;;16.99;48.43;99755.09;5051756;28;20032;-51
2021/09/30 06:48:07;;;;;;;46.45;7.30;;;;;;;17.33;47.60;99751.13;5050475;28;20033;-51
2021/09/30 06:50:33;;;;;;;129.05;9.18;;;;;;;17.66;46.84;99752.66;5050376;28;20025;-49
2021/09/30 06:53:04;;;;;;;121.97;8.02;;;;;;;18.21;45.83;99756.34;5051896;28;20049;-49
2021/09/30 06:55:31;;;;;;;37.45;3.42;;;;;;;18.76;44.68;99749.03;5051713;28;20100;-49
2021/09/30 06:57:57;;;;;;;43.47;5.35;;;;;;;19.44;43.26;99746.94;5051818;28;20040;-49
2021/09/30 07:00:24;;;;;;;14.82;2.53;;;;;;;19.69;42.18;99746.69;5051541;28;20017;-49
2021/09/30 07:02:50;;;;;;;9.52;2.05;;;;;;;20.13;41.46;99747.06;5051679;28;20096;-49
2021/09/30 07:05:16;;;;;;;25.58;2.92;;;;;;;20.81;40.57;99747.25;5050416;28;20052;-49
2021/09/30 07:07:42;;;;;;;10.57;1.80;;;;;;;20.92;39.39;99748.22;5050249;28;20021;-49
2021/09/30 07:10:12;;;;;;;11.10;1.67;;;;;;;20.93;39.45;99748.00;5051496;28;20018;-49
2021/09/30 07:12:39;;;;;;;15.15;2.00;;;;;;;21.49;38.37;99755.25;5051451;28;20544;-49
2021/09/30 07:15:05;;;;;;;10.95;2.75;;;;;;;21.92;37.62;99754.50;5051518;28;20376;-49
2021/09/30 07:17:32;;;;;;;12.30;2.38;;;;;;;22.38;36.93;99756.91;5051424;28;20037;-49
2021/09/30 07:19:58;;;;;;;4.97;1.50;;;;;;;22.43;35.95;99759.63;5051524;28;20048;-49
2021/09/30 07:22:25;;;;;;;9.73;1.60;;;;;;;21.75;36.74;99759.06;5051465;28;20063;-49
2021/09/30 07:24:51;;;;;;;12.40;2.45;;;;;;;21.32;37.76;99763.28;5051631;28;20438;-49
2021/09/30 07:27:17;;;;;;;9.73;2.25;;;;;;;21.75;37.41;99761.75;5055390;28;20024;-49
2021/09/30 07:29:43;;;;;;;9.13;1.73;;;;;;;22.06;36.82;99770.16;5055358;28;20402;-49
2021/09/30 07:32:14;;;;;;;35.55;3.90;;;;;;;22.30;36.36;99770.75;5055299;28;20024;-49
2021/09/30 07:34:40;;;;;;;7.80;1.50;;;;;;;22.56;36.25;99773.66;5054013;28;20741;-50
2021/09/30 07:37:06;;;;;;;19.77;3.40;;;;;;;22.87;35.34;99772.88;5054135;28;20029;-50
2021/09/30 07:39:32;;;;;;;17.17;2.65;;;;;;;22.45;35.53;99772.75;5055202;28;20021;-49
2021/09/30 07:41:58;;;;;;;33.85;4.95;;;;;;;22.26;35.55;99775.78;5055129;28;20042;-49
2021/09/30 07:44:25;;;;;;;65.32;7.32;;;;;;;22.49;36.04;99774.66;5055319;28;20452;-49
2021/09/30 07:46:53;;;;;;;55.53;6.72;;;;;;;22.84;34.98;99773.41;5054950;28;20021;-49
2021/09/30 07:49:20;;;;;;;74.40;4.90;;;;;;;22.73;34.65;99777.84;5055019;28;20025;-49
2021/09/30 07:51:46;;;;;;;64.53;5.55;;;;;;;23.04;34.63;99771.97;5055236;28;20021;-49
2021/09/30 07:54:14;;;;;;;30.77;3.92;;;;;;;23.26;33.88;99770.03;5054920;28;20475;-49
2021/09/30 07:56:43;;;;;;;587.22;522.78;;;;;;;23.33;33.72;99775.16;5054778;28;20095;-49
2021/09/30 07:59:12;;;;;;;31.20;17.88;;;;;;;23.55;33.39;99777.72;5054818;28;20025;-50
2021/09/30 08:01:40;;;;;;;13.88;7.50;;;;;;;24.14;32.57;99779.34;5054717;28;20032;-49
2021/09/30 08:04:06;;;;;;;9.77;2.95;;;;;;;24.38;32.37;99766.25;5054745;28;20108;-49
2021/09/30 08:06:53;;;;;;;9.60;2.85;;;;;;;24.67;31.87;99763.94;5054695;28;20373;-49
2021/09/30 08:09:19;;;;;;;8.52;2.38;;;;;;;24.90;31.61;99773.34;5054369;28;20049;-49
2021/09/30 08:11:46;;;;;;;10.90;2.88;;;;;;;25.08;31.49;99766.63;5054621;28;20068;-49
2021/09/30 08:14:12;;;;;;;10.07;1.60;;;;;;;25.23;31.31;99768.53;5054501;28;20487;-49
2021/09/30 08:16:38;;;;;;;6.68;1.73;;;;;;;25.67;30.60;99765.19;5054519;28;20067;-49
2021/09/30 08:19:03;;;;;;;5.10;1.85;;;;;;;26.09;30.29;99768.56;5053280;28;20407;-49
2021/09/30 08:21:29;;;;;;;9.38;1.77;;;;;;;26.17;29.85;99767.19;5053129;28;20032;-49
2021/09/30 08:23:58;;;;;;;15.57;2.38;;;;;;;26.15;29.47;99762.06;5054442;28;20056;-49
2021/09/30 08:26:24;;;;;;;14.90;1.83;;;;;;;26.36;29.28;99770.84;5033113;28;20038;-49
2021/09/30 08:28:53;;;;;;;20.23;2.35;;;;;;;26.61;28.66;99767.22;5033059;28;20522;-49
2021/09/30 08:31:22;;;;;;;4.43;1.52;;;;;;;26.77;28.36;99773.28;5034281;28;20025;-49
2021/09/30 08:33:49;;;;;;;19.48;2.28;;;;;;;26.48;28.47;99765.09;5034196;28;20483;-49
2021/09/30 08:36:15;;;;;;;171.45;12.95;;;;;;;26.28;28.95;99769.56;5033274;28;20033;-49
2021/09/30 08:38:44;;;;;;;118.75;8.30;;;;;;;26.23;28.87;99768.78;5033745;28;20071;-49
2021/09/30 08:41:14;;;;;;;20.73;2.35;;;;;;;25.82;29.80;99768.94;5032797;28;20024;-49
2021/09/30 08:43:40;;;;;;;10.10;2.00;;;;;;;25.96;29.77;99775.34;5034089;28;20503;-50
2021/09/30 08:46:06;;;;;;;12.10;1.77;;;;;;;26.92;29.30;99776.94;5034017;28;20060;-50
2021/09/30 08:48:35;;;;;;;17.52;1.67;;;;;;;27.95;27.45;99774.06;5032652;28;20109;-50
2021/09/30 08:51:01;;;;;;;9.82;1.58;;;;;;;28.27;27.19;99766.09;5033880;28;20022;-50
2021/09/30 08:53:27;;;;;;;46.22;4.10;;;;;;;28.50;27.19;99769.03;5033925;28;20399;-50
2021/09/30 08:55:53;;;;;;;37.60;3.05;;;;;;;28.68;26.79;99764.72;5033891;28;20025;-50
2021/09/30 08:58:19;;;;;;;11.15;1.55;;;;;;;29.02;26.19;99766.34;5033837;28;20100;-50
2021/09/30 09:00:46;;;;;;;87.35;6.55;;;;;;;29.28;25.54;99761.31;5033767;28;20104;-50
2021/09/30 09:03:12;;;;;;;9.80;1.80;;;;;;;29.22;25.47;99763.28;5033769;28;20112;-50
2021/09/30 09:05:41;;;;;;;15.50;1.67;;;;;;;29.39;25.14;99761.91;5033632;28;20526;-49
2021/09/30 09:08:10;;;;;;;27.90;2.20;;;;;;;29.31;25.33;99768.00;5033905;28;20479;-50
2021/09/30 09:10:41;;;;;;;46.55;4.20;;;;;;;29.79;25.25;99762.25;5032255;28;20022;-50
2021/09/30 09:13:16;;;;;;;7.97;1.30;;;;;;;29.96;24.54;99756.19;5033701;28;20033;-49
2021/09/30 09:15:58;;;;;;;18.00;2.20;;;;;;;30.38;24.22;99746.09;5033460;28;20022;-50
2021/09/30 09:18:43;;;;;;;46.97;3.50;;;;;;;30.69;23.63;99750.78;5033414;28;20037;-49
2021/09/30 09:21:12;;;;;;;32.30;3.40;;;;;;;30.55;23.33;99751.66;5033438;28;20064;-50
2021/09/30 09:24:01;;;;;;;17.02;1.80;;;;;;;30.46;23.41;99743.47;5033339;28;20100;-49
2021/09/30 09:26:34;;;;;;;9.27;1.55;;;;;;;30.26;23.32;99750.13;5033296;28;20038;-49
2021/09/30 09:29:09;;;;;;;20.05;2.25;;;;;;;29.43;24.10;99752.09;5033236;28;20021;-49
2021/09/30 09:31:39;;;;;;;15.90;1.88;;;;;;;28.90;25.30;99755.97;5033183;28;20034;-49
2021/09/30 09:34:30;;;;;;;13.85;2.00;;;;;;;29.19;25.21;99755.75;5033092;28;20030;-49
2021/09/30 09:37:35;;;;;;;13.25;3.03;;;;;;;29.56;25.13;99754.00;5033042;28;20172;-49
2021/09/30 09:40:15;;;;;;;25.65;6.05;;;;;;;29.47;24.84;99753.09;5033339;28;20030;-50
2021/09/30 09:42:40;;;;;;;18.35;2.75;;;;;;;29.35;25.26;99748.16;5031737;28;20410;-49
2021/09/30 09:45:13;;;;;;;8.40;1.50;;;;;;;29.31;25.21;99751.78;5032888;28;20032;-49
2021/09/30 09:47:43;;;;;;;8.00;2.03;;;;;;;29.47;24.98;99747.69;5032483;28;20061;-49
2021/09/30 09:50:25;;;;;;;15.32;2.40;;;;;;;29.73;24.78;99747.22;5032833;28;20026;-50
2021/09/30 09:52:58;;;;;;;13.45;1.50;;;;;;;29.30;24.43;99756.41;5031366;28;20175;-50
2021/09/30 09:55:32;;;;;;;7.10;1.50;;;;;;;29.51;24.17;99745.19;5032781;28;20392;-49
2021/09/30 09:58:12;;;;;;;11.00;2.03;;;;;;;29.91;23.70;99754.41;5032647;28;20032;-49
2021/09/30 10:01:01;;;;;;;5.60;1.33;;;;;;;29.79;23.83;99741.38;5032627;28;20044;-49
2021/09/30 10:03:32;;;;;;;8.85;1.50;;;;;;;30.24;23.49;99749.63;5032601;28;20037;-49
2021/09/30 10:06:00;;;;;;;10.10;2.00;;;;;;;30.79;22.96;99739.72;5032510;28;20022;-49
2021/09/30 10:08:28;;;;;;;15.23;2.20;;;;;;;31.12;22.79;99732.09;5031175;28;20026;-50
2021/09/30 10:10:56;;;;;;;8.10;1.60;;;;;;;31.68;21.87;99729.00;5032472;28;20021;-50
2021/09/30 10:13:24;;;;;;;5.10;1.40;;;;;;;31.78;21.52;99728.69;5032334;28;20037;-47
2021/09/30 10:15:54;;;;;;;6.22;1.17;;;;;;;31.77;21.48;99730.59;5032366;28;20022;-47
2021/09/30 10:18:26;;;;;;;69.90;63.25;;;;;;;31.68;21.36;99732.50;5030985;28;20499;-47
2021/09/30 10:20:52;;;;;;;32.35;23.92;;;;;;;31.69;21.25;99727.84;5032225;28;20025;-47
2021/09/30 10:23:27;;;;;;;16.38;11.85;;;;;;;31.78;20.85;99717.84;5032235;28;20040;-48
2021/09/30 10:25:56;;;;;;;7.18;3.67;;;;;;;32.13;20.29;99717.88;5046333;28;20052;-47
2021/09/30 10:28:24;;;;;;;4.93;1.70;;;;;;;32.22;20.25;99707.84;5052068;28;20529;-50
2021/09/30 10:30:53;;;;;;;10.93;1.90;;;;;;;32.32;20.61;99707.50;5051983;28;20021;-50
2021/09/30 10:33:23;;;;;;;7.70;1.30;;;;;;;32.52;20.30;99699.78;5050636;28;20387;-49
2021/09/30 10:35:54;;;;;;;5.60;1.02;;;;;;;32.84;19.20;99702.00;5050768;28;20037;-49
2021/09/30 10:38:30;;;;;;;10.57;3.28;;;;;;;33.23;18.48;99688.44;5051904;28;20083;-49
2021/09/30 10:41:12;;;;;;;287.65;261.13;;;;;;;33.37;18.42;99693.66;5051832;28;20021;-50
2021/09/30 10:43:47;;;;;;;728.65;617.50;;;;;;;33.10;19.00;99684.84;5052039;28;20036;-47
2021/09/30 10:46:22;;;;;;;234.43;172.07;;;;;;;32.89;19.12;99689.34;5051827;28;20036;-47
2021/09/30 10:48:50;;;;;;;39.45;30.42;;;;;;;32.73;19.50;99683.66;5050473;28;20062;-47
2021/09/30 10:51:17;;;;;;;24.83;15.63;;;;;;;32.51;19.62;99688.13;5051709;28;20025;-47
2021/09/30 10:54:03;;;;;;;19.75;10.90;;;;;;;32.41;19.60;99680.31;5051614;28;20021;-50
2021/09/30 10:56:41;;;;;;;11.32;5.40;;;;;;;32.31;19.54;99678.72;5051430;28;20114;-49
2021/09/30 10:59:13;;;;;;;6.97;3.03;;;;;;;32.19;19.61;99678.56;5051491;28;20528;-47
2021/09/30 11:01:52;;;;;;;12.82;6.82;;;;;;;31.89;19.35;99675.66;5051296;28;20025;-46
2021/09/30 11:04:19;;;;;;;7.75;2.85;;;;;;;31.83;19.39;99671.50;5051569;28;20072;-47
2021/09/30 11:07:05;;;;;;;5.65;2.60;;;;;;;31.92;19.30;99672.31;5051557;28;20091;-47
2021/09/30 11:09:31;;;;;;;24.67;3.28;;;;;;;32.07;19.51;99671.06;5051625;28;20112;-47
2021/09/30 11:12:09;;;;;;;5.32;1.70;;;;;;;32.01;18.94;99672.34;5051537;28;20112;-48
2021/09/30 11:14:54;;;;;;;4.32;1.40;;;;;;;31.45;19.63;99672.91;5051552;28;20033;-47
2021/09/30 11:17:37;;;;;;;8.23;3.40;;;;;;;30.98;19.88;99669.81;5051475;28;20025;-49
2021/09/30 11:20:37;;;;;;;4.03;1.55;;;;;;;31.00;20.00;99661.38;5051472;28;20036;-49
2021/09/30 11:23:04;;;;;;;7.03;2.50;;;;;;;30.37;20.32;99663.25;5051385;28;20025;-50
2021/09/30 11:26:06;;;;;;;17.25;1.90;;;;;;;30.27;21.07;99658.84;5051110;28;20042;-50
2021/09/30 11:28:32;;;;;;;2.75;1.10;;;;;;;30.66;20.00;99650.03;5050101;28;20036;-49
2021/09/30 11:31:27;;;;;;;10.35;2.30;;;;;;;31.07;19.57;99645.47;5051323;28;20029;-50
2021/09/30 11:33:58;;;;;;;8.00;0.95;;;;;;;31.26;19.21;99640.56;5051264;28;20071;-50
2021/09/30 11:36:40;;;;;;;7.90;1.20;;;;;;;31.14;19.22;99645.00;5051395;28;20442;-49
2021/09/30 11:39:06;;;;;;;7.90;1.23;;;;;;;31.10;19.04;99639.41;5051700;28;20029;-49
2021/09/30 11:41:37;;;;;;;7.22;1.20;;;;;;;30.70;19.72;99644.78;5051290;28;20067;-49
2021/09/30 11:44:03;;;;;;;3.58;1.05;;;;;;;30.80;19.69;99639.09;5049931;28;20471;-49
2021/09/30 11:46:33;;;;;;;10.70;2.90;;;;;;;30.63;19.83;99625.47;5049861;28;20575;-49
2021/09/30 11:49:02;;;;;;;6.25;1.38;;;;;;;30.84;19.37;99631.16;5051232;28;20021;-49
2021/09/30 11:51:32;;;;;;;2.65;0.73;;;;;;;31.29;19.13;99628.31;5049866;28;20025;-49
2021/09/30 11:53:58;;;;;;;3.28;0.80;;;;;;;31.38;19.11;99620.97;5051120;28;20082;-49
2021/09/30 11:56:24;;;;;;;6.53;0.90;;;;;;;31.60;19.13;99611.94;5051112;28;20021;-50
2021/09/30 11:59:06;;;;;;;6.43;1.33;;;;;;;31.21;19.46;99613.63;5049804;28;20086;-49
2021/09/30 12:01:37;;;;;;;7.93;1.25;;;;;;;31.10;19.35;99604.16;5051323;28;20033;-50
2021/09/30 12:04:04;;;;;;;17.15;2.00;;;;;;;31.17;19.06;99609.94;5049732;28;20025;-49
2021/09/30 12:06:47;;;;;;;110.53;11.15;;;;;;;31.10;19.11;99598.75;5051018;28;20021;-49
2021/09/30 12:09:15;;;;;;;137.35;12.73;;;;;;;30.23;19.95;99595.59;5049711;28;20040;-49
2021/09/30 12:11:53;;;;;;;166.70;14.40;;;;;;;30.25;20.42;99599.56;5052643;28;20154;-50
2021/09/30 12:14:19;;;;;;;44.35;4.85;;;;;;;30.46;20.01;99594.47;5053237;28;20483;-49
2021/09/30 12:16:57;;;;;;;239.13;23.83;;;;;;;30.73;19.74;99583.78;5054521;28;20023;-49
2021/09/30 12:19:39;;;;;;;113.90;11.55;;;;;;;30.92;19.39;99587.03;5054475;28;20036;-49
2021/09/30 12:22:13;;;;;;;177.63;17.35;;;;;;;30.93;19.54;99575.09;5054477;28;20032;-49
2021/09/30 12:24:45;;;;;;;103.22;8.77;;;;;;;31.03;19.47;99572.09;5054248;28;20572;-50
2021/09/30 12:27:12;;;;;;;88.05;21.30;;;;;;;30.92;19.67;99576.19;5054316;28;20033;-50
2021/09/30 12:29:43;;;;;;;56.35;21.52;;;;;;;30.93;19.47;99568.84;5054258;28;20029;-49
2021/09/30 12:32:15;;;;;;;19.25;4.93;;;;;;;31.07;19.29;99566.84;5054305;28;20032;-49
2021/09/30 12:34:44;;;;;;;31.95;3.53;;;;;;;31.26;19.30;99561.91;5054259;28;20029;-50
2021/09/30 12:37:10;;;;;;;20.10;3.78;;;;;;;31.09;19.31;99567.31;5054131;28;20021;-50
2021/09/30 12:39:39;;;;;;;24.00;1.58;;;;;;;31.13;19.04;99557.44;5052816;28;20025;-49
2021/09/30 12:42:16;;;;;;;21.13;2.30;;;;;;;30.66;19.45;99562.53;5054093;28;20494;-49
2021/09/30 12:44:52;;;;;;;52.88;6.93;;;;;;;30.29;19.65;99564.56;5052696;28;20035;-49
2021/09/30 12:48:00;;;;;;;127.40;13.23;;;;;;;30.14;19.98;99556.81;5054008;28;20032;-49
2021/09/30 12:50:37;;;;;;;39.65;4.43;;;;;;;30.22;20.06;99551.47;5011956;28;20539;-49
2021/09/30 12:53:04;;;;;;;129.52;10.68;;;;;;;29.96;20.42;99545.88;4995486;28;20422;-49
2021/09/30 12:55:31;;;;;;;288.52;95.63;;;;;;;29.23;21.01;99547.78;5011816;28;20053;-49
2021/09/30 12:57:57;;;;;;;218.52;57.33;;;;;;;28.76;21.67;99545.19;5011804;28;20045;-49
2021/09/30 13:00:24;;;;;;;190.32;52.40;;;;;;;28.80;21.33;99540.00;5011843;28;20048;-49
2021/09/30 13:02:58;;;;;;;34.05;15.20;;;;;;;28.74;21.52;99536.59;5011851;28;20551;-49
2021/09/30 13:05:24;;;;;;;20.45;7.85;;;;;;;28.48;22.21;99531.63;5011819;28;20045;-49
2021/09/30 13:07:58;;;;;;;11.18;4.43;;;;;;;28.47;21.50;99531.94;4995271;28;20523;-49
2021/09/30 13:10:34;;;;;;;14.55;3.70;;;;;;;28.16;21.81;99532.50;5011718;28;20104;-49
2021/09/30 13:13:14;;;;;;;8.32;2.08;;;;;;;27.64;22.62;99518.19;5011698;28;20587;-49
2021/09/30 13:15:43;;;;;;;5.20;1.52;;;;;;;27.37;22.87;99526.97;4995213;28;20030;-50
2021/09/30 13:18:13;;;;;;;7.35;1.75;;;;;;;27.10;23.00;99521.09;5011538;28;20556;-49
2021/09/30 13:20:41;;;;;;;12.80;2.00;;;;;;;26.81;23.43;99518.47;5011482;28;20132;-49
2021/09/30 13:23:09;;;;;;;7.95;3.15;;;;;;;26.63;23.81;99514.63;4995388;28;20124;-49
2021/09/30 13:25:35;;;;;;;23.70;2.75;;;;;;;26.58;23.89;99519.25;5052966;28;20056;-49
2021/09/30 13:28:02;;;;;;;33.60;3.85;;;;;;;26.09;24.42;99518.34;5051913;28;20408;-49
2021/09/30 13:30:34;;;;;;;26.70;3.78;;;;;;;25.84;25.03;99519.34;5053092;28;20159;-49
2021/09/30 13:33:01;;;;;;;82.88;6.43;;;;;;;25.74;25.07;99504.09;5053035;28;20029;-49
2021/09/30 13:35:30;;;;;;;28.02;1.90;;;;;;;25.27;25.58;99502.78;5053058;28;20025;-49
2021/09/30 13:37:57;;;;;;;12.02;1.80;;;;;;;24.86;26.06;99503.75;5051722;28;20510;-49
2021/09/30 13:40:24;;;;;;;11.10;1.83;;;;;;;24.49;27.14;99498.75;5052931;28;20037;-49
2021/09/30 13:42:50;;;;;;;27.88;2.47;;;;;;;24.12;27.34;99499.88;5034944;28;20135;-49
2021/09/30 13:45:18;;;;;;;30.80;3.70;;;;;;;23.72;27.99;99494.22;5051537;28;20035;-49
2021/09/30 13:47:44;;;;;;;29.17;4.90;;;;;;;23.55;28.44;99491.00;5052853;28;20029;-49
2021/09/30 13:50:14;;;;;;;162.55;15.30;;;;;;;23.56;28.50;99492.56;5052721;28;20104;-49
2021/09/30 13:52:41;;;;;;;69.25;5.35;;;;;;;23.68;28.60;99477.06;5051276;28;20521;-49
2021/09/30 13:55:08;;;;;;;23.05;2.88;;;;;;;23.72;28.37;99480.81;5052695;28;20118;-49
2021/09/30 13:57:34;;;;;;;24.80;15.48;;;;;;;23.61;28.72;99478.41;5052538;28;20017;-49
2021/09/30 14:00:03;;;;;;;40.40;4.72;;;;;;;23.43;28.85;99471.69;5052601;28;20040;-49
2021/09/30 14:02:28;;;;;;;42.42;3.63;;;;;;;23.41;28.78;99479.19;5052486;28;20037;-49
2021/09/30 14:04:54;;;;;;;128.35;14.63;;;;;;;23.41;29.01;99465.78;5052502;28;20028;-49
2021/09/30 14:07:20;;;;;;;98.00;10.95;;;;;;;23.48;28.97;99459.09;5052441;28;20017;-49
2021/09/30 14:09:46;;;;;;;52.42;6.13;;;;;;;23.46;29.32;99474.63;5051108;28;20033;-49
2021/09/30 14:12:12;;;;;;;77.30;6.32;;;;;;;23.20;29.59;99465.75;5052311;28;20028;-49
2021/09/30 14:14:38;;;;;;;178.60;19.00;;;;;;;23.10;29.85;99463.03;5034335;28;20033;-49
2021/09/30 14:17:04;;;;;;;41.90;5.30;;;;;;;23.05;29.58;99460.34;5050968;28;20518;-49
2021/09/30 14:19:30;;;;;;;129.45;12.15;;;;;;;22.82;30.08;99462.38;5052242;28;20051;-49
2021/09/30 14:21:57;;;;;;;41.58;4.57;;;;;;;22.52;30.77;99449.69;5051001;28;20103;-49
2021/09/30 14:24:23;;;;;;;101.18;11.88;;;;;;;22.30;31.45;99449.81;5050564;28;20514;-49
2021/09/30 14:26:49;;;;;;;51.78;5.68;;;;;;;22.27;31.35;99451.13;5052754;28;20131;-49